الصفحة الرئيسية
METAR-TAF:

METAR-TAF

مطار :

ياكوتسك, روسيا

دائرة عرض: 62-01N, خط طول: 129-43E, ارتفاع: 103 متر

مراقبة الطقس الحالي

تاريخ ووقت الإصدار 29 دقيقة قبل الساعة 03:00UTC
رياح هادئة
درجة الحرارة -6°درجة مئوية
الرطوبة 93%
ضغط 1018 hPa
الرؤية 10 كم أو أكثر
الغيوم لا تقل 1500 م ولا وجود لمزنة ركامية السحاب الأسود

METAR: UEEE 230300Z 00000MPS CAVOK M06/M07 Q1018 R23L/450157 NOSIG RMK QFE755

زمن: 12:29 (03:29 UTC)

توقعات

تاريخ ووقت الإصدار 1ساعة و 29 دقيقة قبل الساعة 02:00UTC
التوقعات صالحة من23 الساعة 03 UTC إلى 24 الساعة 09 UTC
ريح 6 عقدة من الشرق/الجنوب الشرقي
الرؤية: 5000 متر
غيوم متفرقة على ارتفاع 800 قدم
غيوم مفككة على ارتفاع 1500 قدم, مزنة ركامية.
ملبد بالغيوم على ارتفاع 7000 قدم
غشاء
مؤقت
من 23 الساعة 03 UTC إلى 23 الساعة 12 UTC
الرؤية: 0300 متر
على ارتفاع 200 قدم
ضباب مجمِّد

TAF: UEEE 230200Z 2303/2409 12003MPS 5000 BR SCT008 BKN015CB OVC070 TEMPO 2303/2312 0300 FZFG VV002

أرصاد الطقس والتوقعات من أكثر من 4000 مطار (تقارير الطقس للمطار METAR والتنبؤ بالطقس بالمطارTAF).

المحطات المتاحة هي النقط الصفراء والحمراء على الخريطة.

حرك المؤشر فوق النقطة لمعرفة اسم المحطة.

ثم انقر لمعرفة أرصاد وتوقعات الطقس.

لتغيير الخارطة: اضغط على الأزرار الخضراء مع رمز الصليب الأسود للتكبير. على الزر الأخضر مع شرطة للتصغير، أو على الأسهم الخضراء للخرائط المجاورة.


METAR-TAF: